sensor_id;sensor_type;location;lat;lon;timestamp;temperature;humidity
40932;DHT22;36257;46.052;12.540;2023-01-24T00:00:56;6.70;95.40
40932;DHT22;36257;46.052;12.540;2023-01-24T00:03:22;6.60;95.30
40932;DHT22;36257;46.052;12.540;2023-01-24T00:05:48;6.50;95.60
40932;DHT22;36257;46.052;12.540;2023-01-24T00:08:16;6.50;95.90
40932;DHT22;36257;46.052;12.540;2023-01-24T00:10:46;6.40;95.70
40932;DHT22;36257;46.052;12.540;2023-01-24T00:13:13;6.40;95.60
40932;DHT22;36257;46.052;12.540;2023-01-24T00:15:39;6.50;95.10
40932;DHT22;36257;46.052;12.540;2023-01-24T00:18:05;6.40;95.00
40932;DHT22;36257;46.052;12.540;2023-01-24T00:20:31;6.40;95.10
40932;DHT22;36257;46.052;12.540;2023-01-24T00:22:56;6.40;94.90
40932;DHT22;36257;46.052;12.540;2023-01-24T00:25:22;6.40;95.30
40932;DHT22;36257;46.052;12.540;2023-01-24T00:27:48;6.30;95.90
40932;DHT22;36257;46.052;12.540;2023-01-24T00:30:14;6.30;95.80
40932;DHT22;36257;46.052;12.540;2023-01-24T00:32:39;6.30;95.60
40932;DHT22;36257;46.052;12.540;2023-01-24T00:35:05;6.30;95.80
40932;DHT22;36257;46.052;12.540;2023-01-24T00:37:31;6.30;95.70
40932;DHT22;36257;46.052;12.540;2023-01-24T00:39:57;6.30;95.70
40932;DHT22;36257;46.052;12.540;2023-01-24T00:42:22;6.20;96.30
40932;DHT22;36257;46.052;12.540;2023-01-24T00:44:48;6.20;96.30
40932;DHT22;36257;46.052;12.540;2023-01-24T00:47:14;6.10;96.50
40932;DHT22;36257;46.052;12.540;2023-01-24T00:49:39;6.20;96.40
40932;DHT22;36257;46.052;12.540;2023-01-24T00:52:05;6.10;97.50
40932;DHT22;36257;46.052;12.540;2023-01-24T00:54:30;6.00;97.90
40932;DHT22;36257;46.052;12.540;2023-01-24T00:56:56;6.10;97.90
40932;DHT22;36257;46.052;12.540;2023-01-24T00:59:21;6.10;97.60
40932;DHT22;36257;46.052;12.540;2023-01-24T01:01:47;6.10;97.50
40932;DHT22;36257;46.052;12.540;2023-01-24T01:04:13;6.00;97.50
40932;DHT22;36257;46.052;12.540;2023-01-24T01:06:38;6.10;97.80
40932;DHT22;36257;46.052;12.540;2023-01-24T01:09:04;6.10;97.70
40932;DHT22;36257;46.052;12.540;2023-01-24T01:11:30;6.20;97.80
40932;DHT22;36257;46.052;12.540;2023-01-24T01:13:56;6.30;97.20
40932;DHT22;36257;46.052;12.540;2023-01-24T01:16:23;6.30;97.10
40932;DHT22;36257;46.052;12.540;2023-01-24T01:18:52;6.30;96.90
40932;DHT22;36257;46.052;12.540;2023-01-24T01:21:19;6.30;97.00
40932;DHT22;36257;46.052;12.540;2023-01-24T01:23:46;6.40;96.90
40932;DHT22;36257;46.052;12.540;2023-01-24T01:26:20;6.40;97.10
40932;DHT22;36257;46.052;12.540;2023-01-24T01:28:46;6.40;97.00
40932;DHT22;36257;46.052;12.540;2023-01-24T01:31:12;6.40;97.00
40932;DHT22;36257;46.052;12.540;2023-01-24T01:33:37;6.50;96.60
40932;DHT22;36257;46.052;12.540;2023-01-24T01:36:03;6.60;96.20
40932;DHT22;36257;46.052;12.540;2023-01-24T01:38:29;6.70;95.80
40932;DHT22;36257;46.052;12.540;2023-01-24T01:40:56;6.80;95.50
40932;DHT22;36257;46.052;12.540;2023-01-24T01:43:24;6.80;95.60
40932;DHT22;36257;46.052;12.540;2023-01-24T01:45:51;6.80;95.90
40932;DHT22;36257;46.052;12.540;2023-01-24T01:48:21;6.80;96.20
40932;DHT22;36257;46.052;12.540;2023-01-24T01:53:22;6.80;97.50
40932;DHT22;36257;46.052;12.540;2023-01-24T01:55:52;6.50;98.00
40932;DHT22;36257;46.052;12.540;2023-01-24T01:58:19;6.40;98.00
40932;DHT22;36257;46.052;12.540;2023-01-24T02:00:46;6.40;98.40
40932;DHT22;36257;46.052;12.540;2023-01-24T02:03:18;6.30;98.90
40932;DHT22;36257;46.052;12.540;2023-01-24T02:06:03;6.30;99.10
40932;DHT22;36257;46.052;12.540;2023-01-24T02:08:30;6.40;98.40
40932;DHT22;36257;46.052;12.540;2023-01-24T02:10:56;6.40;98.20
40932;DHT22;36257;46.052;12.540;2023-01-24T02:13:42;6.40;98.40
40932;DHT22;36257;46.052;12.540;2023-01-24T02:16:13;6.30;98.70
40932;DHT22;36257;46.052;12.540;2023-01-24T02:18:41;6.40;98.70
40932;DHT22;36257;46.052;12.540;2023-01-24T02:21:09;6.30;98.80
40932;DHT22;36257;46.052;12.540;2023-01-24T02:24:08;6.30;99.00
40932;DHT22;36257;46.052;12.540;2023-01-24T02:26:38;6.20;99.30
40932;DHT22;36257;46.052;12.540;2023-01-24T02:29:08;6.10;99.10
40932;DHT22;36257;46.052;12.540;2023-01-24T02:34:22;6.00;99.50
40932;DHT22;36257;46.052;12.540;2023-01-24T02:36:55;6.00;99.70
40932;DHT22;36257;46.052;12.540;2023-01-24T02:39:28;5.90;99.90
40932;DHT22;36257;46.052;12.540;2023-01-24T02:42:07;5.90;99.90
40932;DHT22;36257;46.052;12.540;2023-01-24T02:44:45;5.90;99.90
40932;DHT22;36257;46.052;12.540;2023-01-24T02:47:11;5.90;99.90
40932;DHT22;36257;46.052;12.540;2023-01-24T02:49:37;5.90;99.90
40932;DHT22;36257;46.052;12.540;2023-01-24T02:52:03;6.00;99.90
40932;DHT22;36257;46.052;12.540;2023-01-24T02:54:47;5.90;99.90
40932;DHT22;36257;46.052;12.540;2023-01-24T02:57:13;5.90;99.90
40932;DHT22;36257;46.052;12.540;2023-01-24T02:59:57;6.00;99.90
40932;DHT22;36257;46.052;12.540;2023-01-24T03:02:23;6.00;99.90
40932;DHT22;36257;46.052;12.540;2023-01-24T03:04:48;6.00;99.70
40932;DHT22;36257;46.052;12.540;2023-01-24T03:07:15;6.00;99.90
40932;DHT22;36257;46.052;12.540;2023-01-24T03:09:40;6.10;99.70
40932;DHT22;36257;46.052;12.540;2023-01-24T03:12:12;6.10;99.70
40932;DHT22;36257;46.052;12.540;2023-01-24T03:14:56;6.20;99.60
40932;DHT22;36257;46.052;12.540;2023-01-24T03:17:40;6.20;99.70
40932;DHT22;36257;46.052;12.540;2023-01-24T03:20:24;6.20;99.60
40932;DHT22;36257;46.052;12.540;2023-01-24T03:23:08;6.20;99.30
40932;DHT22;36257;46.052;12.540;2023-01-24T03:25:54;6.20;99.10
40932;DHT22;36257;46.052;12.540;2023-01-24T03:28:39;6.10;99.10
40932;DHT22;36257;46.052;12.540;2023-01-24T03:31:24;6.00;99.10
40932;DHT22;36257;46.052;12.540;2023-01-24T03:34:08;6.00;99.30
40932;DHT22;36257;46.052;12.540;2023-01-24T03:36:52;6.10;98.70
40932;DHT22;36257;46.052;12.540;2023-01-24T03:39:18;6.10;97.50
40932;DHT22;36257;46.052;12.540;2023-01-24T03:42:02;6.10;97.80
40932;DHT22;36257;46.052;12.540;2023-01-24T03:44:27;6.10;98.20
40932;DHT22;36257;46.052;12.540;2023-01-24T03:46:53;6.10;98.30
40932;DHT22;36257;46.052;12.540;2023-01-24T03:49:19;6.10;98.80
40932;DHT22;36257;46.052;12.540;2023-01-24T03:52:05;6.00;98.90
40932;DHT22;36257;46.052;12.540;2023-01-24T03:54:49;6.10;98.80
40932;DHT22;36257;46.052;12.540;2023-01-24T03:57:15;6.10;98.70
40932;DHT22;36257;46.052;12.540;2023-01-24T03:59:40;6.10;98.60
40932;DHT22;36257;46.052;12.540;2023-01-24T04:02:06;6.20;98.60
40932;DHT22;36257;46.052;12.540;2023-01-24T04:04:31;6.20;98.80
40932;DHT22;36257;46.052;12.540;2023-01-24T04:07:15;6.20;98.30
40932;DHT22;36257;46.052;12.540;2023-01-24T04:09:41;6.30;97.70
40932;DHT22;36257;46.052;12.540;2023-01-24T04:12:07;6.20;98.30
40932;DHT22;36257;46.052;12.540;2023-01-24T04:14:32;6.20;98.30
40932;DHT22;36257;46.052;12.540;2023-01-24T04:16:58;6.40;97.70
40932;DHT22;36257;46.052;12.540;2023-01-24T04:19:23;6.50;97.40
40932;DHT22;36257;46.052;12.540;2023-01-24T04:21:49;6.50;97.20
40932;DHT22;36257;46.052;12.540;2023-01-24T04:24:14;6.60;96.90
40932;DHT22;36257;46.052;12.540;2023-01-24T04:26:40;6.60;96.30
40932;DHT22;36257;46.052;12.540;2023-01-24T04:29:06;6.70;95.40
40932;DHT22;36257;46.052;12.540;2023-01-24T04:31:31;6.80;95.30
40932;DHT22;36257;46.052;12.540;2023-01-24T04:33:57;6.70;95.60
40932;DHT22;36257;46.052;12.540;2023-01-24T04:36:22;6.70;94.90
40932;DHT22;36257;46.052;12.540;2023-01-24T04:38:48;6.80;95.00
40932;DHT22;36257;46.052;12.540;2023-01-24T04:41:13;6.80;94.90
40932;DHT22;36257;46.052;12.540;2023-01-24T04:43:40;6.80;95.40
40932;DHT22;36257;46.052;12.540;2023-01-24T04:46:06;6.80;95.80
40932;DHT22;36257;46.052;12.540;2023-01-24T04:48:32;6.70;96.20
40932;DHT22;36257;46.052;12.540;2023-01-24T04:51:00;6.70;96.40
40932;DHT22;36257;46.052;12.540;2023-01-24T04:53:27;6.60;96.80
40932;DHT22;36257;46.052;12.540;2023-01-24T04:55:54;6.50;96.90
40932;DHT22;36257;46.052;12.540;2023-01-24T04:58:19;6.50;97.30
40932;DHT22;36257;46.052;12.540;2023-01-24T05:00:47;6.40;97.60
40932;DHT22;36257;46.052;12.540;2023-01-24T05:03:13;6.40;98.10
40932;DHT22;36257;46.052;12.540;2023-01-24T05:05:38;6.40;98.20
40932;DHT22;36257;46.052;12.540;2023-01-24T05:08:04;6.40;98.40
40932;DHT22;36257;46.052;12.540;2023-01-24T05:10:30;6.40;98.60
40932;DHT22;36257;46.052;12.540;2023-01-24T05:12:55;6.40;98.80
40932;DHT22;36257;46.052;12.540;2023-01-24T05:15:21;6.30;98.90
40932;DHT22;36257;46.052;12.540;2023-01-24T05:17:48;6.30;99.30
40932;DHT22;36257;46.052;12.540;2023-01-24T05:20:14;6.20;99.80
40932;DHT22;36257;46.052;12.540;2023-01-24T05:22:40;6.20;99.90
40932;DHT22;36257;46.052;12.540;2023-01-24T05:25:06;6.20;99.90
40932;DHT22;36257;46.052;12.540;2023-01-24T05:27:31;6.20;99.90
40932;DHT22;36257;46.052;12.540;2023-01-24T05:29:57;6.20;99.90
40932;DHT22;36257;46.052;12.540;2023-01-24T05:32:23;6.20;99.90
40932;DHT22;36257;46.052;12.540;2023-01-24T05:34:48;6.10;99.90
40932;DHT22;36257;46.052;12.540;2023-01-24T05:37:14;6.10;99.90
40932;DHT22;36257;46.052;12.540;2023-01-24T05:39:40;6.10;99.90
40932;DHT22;36257;46.052;12.540;2023-01-24T05:42:05;6.10;99.90
40932;DHT22;36257;46.052;12.540;2023-01-24T05:44:31;6.10;99.90
40932;DHT22;36257;46.052;12.540;2023-01-24T05:46:56;6.10;99.90
40932;DHT22;36257;46.052;12.540;2023-01-24T05:49:22;6.00;99.90
40932;DHT22;36257;46.052;12.540;2023-01-24T05:51:48;6.00;99.90
40932;DHT22;36257;46.052;12.540;2023-01-24T05:54:13;6.10;99.90
40932;DHT22;36257;46.052;12.540;2023-01-24T05:56:39;6.10;99.90
40932;DHT22;36257;46.052;12.540;2023-01-24T05:59:04;6.00;99.90
40932;DHT22;36257;46.052;12.540;2023-01-24T06:01:30;5.90;99.90
40932;DHT22;36257;46.052;12.540;2023-01-24T06:03:56;6.00;99.90
40932;DHT22;36257;46.052;12.540;2023-01-24T06:06:23;6.00;99.50
40932;DHT22;36257;46.052;12.540;2023-01-24T06:08:50;6.10;98.80
40932;DHT22;36257;46.052;12.540;2023-01-24T06:11:16;6.10;98.60
40932;DHT22;36257;46.052;12.540;2023-01-24T06:13:43;6.00;98.60
40932;DHT22;36257;46.052;12.540;2023-01-24T06:16:12;6.00;99.00
40932;DHT22;36257;46.052;12.540;2023-01-24T06:18:38;5.80;99.30
40932;DHT22;36257;46.052;12.540;2023-01-24T06:23:40;5.70;99.60
40932;DHT22;36257;46.052;12.540;2023-01-24T06:26:09;5.80;99.40
40932;DHT22;36257;46.052;12.540;2023-01-24T06:28:35;5.60;99.90
40932;DHT22;36257;46.052;12.540;2023-01-24T06:31:06;5.50;99.90
40932;DHT22;36257;46.052;12.540;2023-01-24T06:39:06;5.40;99.90
40932;DHT22;36257;46.052;12.540;2023-01-24T06:41:33;5.40;99.90
40932;DHT22;36257;46.052;12.540;2023-01-24T06:43:59;5.40;99.90
40932;DHT22;36257;46.052;12.540;2023-01-24T06:46:24;5.30;99.90
40932;DHT22;36257;46.052;12.540;2023-01-24T06:48:50;5.30;99.90
40932;DHT22;36257;46.052;12.540;2023-01-24T06:51:16;5.30;99.90
40932;DHT22;36257;46.052;12.540;2023-01-24T06:53:41;5.30;99.90
40932;DHT22;36257;46.052;12.540;2023-01-24T06:56:08;5.20;99.90
40932;DHT22;36257;46.052;12.540;2023-01-24T06:58:34;5.20;99.90
40932;DHT22;36257;46.052;12.540;2023-01-24T07:00:59;5.20;99.90
40932;DHT22;36257;46.052;12.540;2023-01-24T07:03:25;5.20;99.90
40932;DHT22;36257;46.052;12.540;2023-01-24T07:05:51;5.20;99.90
40932;DHT22;36257;46.052;12.540;2023-01-24T07:08:16;5.30;99.90
40932;DHT22;36257;46.052;12.540;2023-01-24T07:10:45;5.30;99.90
40932;DHT22;36257;46.052;12.540;2023-01-24T07:13:10;5.30;99.90
40932;DHT22;36257;46.052;12.540;2023-01-24T07:15:36;5.30;99.90
40932;DHT22;36257;46.052;12.540;2023-01-24T07:18:06;5.20;99.90
40932;DHT22;36257;46.052;12.540;2023-01-24T07:20:32;5.30;99.90
40932;DHT22;36257;46.052;12.540;2023-01-24T07:22:58;5.30;99.90
40932;DHT22;36257;46.052;12.540;2023-01-24T07:25:25;5.40;99.90
40932;DHT22;36257;46.052;12.540;2023-01-24T07:27:51;5.40;99.90
40932;DHT22;36257;46.052;12.540;2023-01-24T07:30:17;5.40;99.90
40932;DHT22;36257;46.052;12.540;2023-01-24T07:32:43;5.40;99.90
40932;DHT22;36257;46.052;12.540;2023-01-24T07:35:09;5.40;99.90
40932;DHT22;36257;46.052;12.540;2023-01-24T07:37:34;5.30;99.90
40932;DHT22;36257;46.052;12.540;2023-01-24T07:40:00;5.30;99.90
40932;DHT22;36257;46.052;12.540;2023-01-24T07:42:28;5.40;99.90
40932;DHT22;36257;46.052;12.540;2023-01-24T07:44:54;5.40;99.90
40932;DHT22;36257;46.052;12.540;2023-01-24T07:47:22;5.40;99.90
40932;DHT22;36257;46.052;12.540;2023-01-24T07:49:48;5.40;99.90
40932;DHT22;36257;46.052;12.540;2023-01-24T07:52:14;5.50;99.90
40932;DHT22;36257;46.052;12.540;2023-01-24T07:54:39;5.50;99.90
40932;DHT22;36257;46.052;12.540;2023-01-24T07:57:05;5.50;99.90
40932;DHT22;36257;46.052;12.540;2023-01-24T07:59:31;5.50;99.90
40932;DHT22;36257;46.052;12.540;2023-01-24T08:01:56;5.50;99.90
40932;DHT22;36257;46.052;12.540;2023-01-24T08:04:22;5.60;99.90
40932;DHT22;36257;46.052;12.540;2023-01-24T08:06:47;5.70;99.90
40932;DHT22;36257;46.052;12.540;2023-01-24T08:09:32;5.80;99.90
40932;DHT22;36257;46.052;12.540;2023-01-24T08:11:57;5.80;99.90
40932;DHT22;36257;46.052;12.540;2023-01-24T08:14:23;5.90;99.90
40932;DHT22;36257;46.052;12.540;2023-01-24T08:16:49;5.90;99.90
40932;DHT22;36257;46.052;12.540;2023-01-24T08:19:15;6.00;99.90
40932;DHT22;36257;46.052;12.540;2023-01-24T08:21:40;6.10;99.90
40932;DHT22;36257;46.052;12.540;2023-01-24T08:24:06;6.20;99.90
40932;DHT22;36257;46.052;12.540;2023-01-24T08:26:32;6.20;99.70
40932;DHT22;36257;46.052;12.540;2023-01-24T08:28:58;6.30;99.30
40932;DHT22;36257;46.052;12.540;2023-01-24T08:31:23;6.50;96.90
40932;DHT22;36257;46.052;12.540;2023-01-24T08:33:49;6.70;95.10
40932;DHT22;36257;46.052;12.540;2023-01-24T08:36:14;6.90;94.30
40932;DHT22;36257;46.052;12.540;2023-01-24T08:38:40;7.10;94.10
40932;DHT22;36257;46.052;12.540;2023-01-24T08:41:06;7.20;95.10
40932;DHT22;36257;46.052;12.540;2023-01-24T08:43:32;7.30;96.00
40932;DHT22;36257;46.052;12.540;2023-01-24T08:45:58;7.30;96.00
40932;DHT22;36257;46.052;12.540;2023-01-24T08:48:23;7.40;95.90
40932;DHT22;36257;46.052;12.540;2023-01-24T08:50:49;7.50;95.00
40932;DHT22;36257;46.052;12.540;2023-01-24T08:53:15;7.70;94.00
40932;DHT22;36257;46.052;12.540;2023-01-24T08:55:40;7.80;93.80
40932;DHT22;36257;46.052;12.540;2023-01-24T08:58:06;7.80;94.20
40932;DHT22;36257;46.052;12.540;2023-01-24T09:00:32;7.90;94.70
40932;DHT22;36257;46.052;12.540;2023-01-24T09:02:58;7.90;93.60
40932;DHT22;36257;46.052;12.540;2023-01-24T09:05:28;7.80;93.80
40932;DHT22;36257;46.052;12.540;2023-01-24T09:07:53;7.80;93.30
40932;DHT22;36257;46.052;12.540;2023-01-24T09:10:19;8.00;92.20
40932;DHT22;36257;46.052;12.540;2023-01-24T09:12:44;8.00;92.40
40932;DHT22;36257;46.052;12.540;2023-01-24T09:15:10;8.10;90.90
40932;DHT22;36257;46.052;12.540;2023-01-24T09:17:37;8.20;90.30
40932;DHT22;36257;46.052;12.540;2023-01-24T09:20:05;8.20;90.90
40932;DHT22;36257;46.052;12.540;2023-01-24T09:22:32;8.10;91.10
40932;DHT22;36257;46.052;12.540;2023-01-24T09:24:57;8.30;91.70
40932;DHT22;36257;46.052;12.540;2023-01-24T09:27:23;8.30;90.80
40932;DHT22;36257;46.052;12.540;2023-01-24T09:29:49;8.40;89.90
40932;DHT22;36257;46.052;12.540;2023-01-24T09:32:15;8.50;88.90
40932;DHT22;36257;46.052;12.540;2023-01-24T09:34:42;8.50;90.00
40932;DHT22;36257;46.052;12.540;2023-01-24T09:37:15;8.40;89.40
40932;DHT22;36257;46.052;12.540;2023-01-24T09:39:41;8.40;89.80
40932;DHT22;36257;46.052;12.540;2023-01-24T09:47:51;8.50;91.10
40932;DHT22;36257;46.052;12.540;2023-01-24T09:50:38;8.70;90.50
40932;DHT22;36257;46.052;12.540;2023-01-24T09:53:17;8.80;89.80
40932;DHT22;36257;46.052;12.540;2023-01-24T09:55:43;9.00;89.50
40932;DHT22;36257;46.052;12.540;2023-01-24T10:01:12;9.10;88.50
40932;DHT22;36257;46.052;12.540;2023-01-24T10:03:39;9.20;89.50
40932;DHT22;36257;46.052;12.540;2023-01-24T10:06:26;9.20;89.00
40932;DHT22;36257;46.052;12.540;2023-01-24T10:09:16;9.30;87.60
40932;DHT22;36257;46.052;12.540;2023-01-24T10:11:59;9.50;87.80
40932;DHT22;36257;46.052;12.540;2023-01-24T10:23:05;9.50;87.60
40932;DHT22;36257;46.052;12.540;2023-01-24T10:25:34;9.60;87.70
40932;DHT22;36257;46.052;12.540;2023-01-24T10:28:03;9.70;86.60
40932;DHT22;36257;46.052;12.540;2023-01-24T10:30:41;9.70;87.20
40932;DHT22;36257;46.052;12.540;2023-01-24T10:33:16;9.90;86.30
40932;DHT22;36257;46.052;12.540;2023-01-24T10:36:13;10.10;85.70
40932;DHT22;36257;46.052;12.540;2023-01-24T10:38:42;10.10;84.90
40932;DHT22;36257;46.052;12.540;2023-01-24T10:43:42;10.30;84.20
40932;DHT22;36257;46.052;12.540;2023-01-24T10:49:15;11.10;82.90
40932;DHT22;36257;46.052;12.540;2023-01-24T10:51:42;11.50;82.50
40932;DHT22;36257;46.052;12.540;2023-01-24T10:54:19;11.90;81.40
40932;DHT22;36257;46.052;12.540;2023-01-24T10:56:46;12.40;81.10
40932;DHT22;36257;46.052;12.540;2023-01-24T10:59:14;12.80;80.30
40932;DHT22;36257;46.052;12.540;2023-01-24T11:01:46;12.90;78.70
40932;DHT22;36257;46.052;12.540;2023-01-24T11:04:25;13.30;78.50
40932;DHT22;36257;46.052;12.540;2023-01-24T11:06:51;13.50;76.70
40932;DHT22;36257;46.052;12.540;2023-01-24T11:09:19;13.40;78.10
40932;DHT22;36257;46.052;12.540;2023-01-24T11:11:53;13.50;78.20
40932;DHT22;36257;46.052;12.540;2023-01-24T11:14:47;13.70;77.00
40932;DHT22;36257;46.052;12.540;2023-01-24T11:17:34;13.90;78.50
40932;DHT22;36257;46.052;12.540;2023-01-24T11:20:36;14.20;76.10
40932;DHT22;36257;46.052;12.540;2023-01-24T11:23:21;14.00;77.10
40932;DHT22;36257;46.052;12.540;2023-01-24T11:25:57;13.30;74.00
40932;DHT22;36257;46.052;12.540;2023-01-24T11:30:56;13.20;74.30
40932;DHT22;36257;46.052;12.540;2023-01-24T11:45:32;12.70;74.70
40932;DHT22;36257;46.052;12.540;2023-01-24T12:09:09;13.80;71.80
40932;DHT22;36257;46.052;12.540;2023-01-24T12:11:46;13.80;70.70
40932;DHT22;36257;46.052;12.540;2023-01-24T12:17:00;13.10;72.20
40932;DHT22;36257;46.052;12.540;2023-01-24T12:22:19;12.70;72.80
40932;DHT22;36257;46.052;12.540;2023-01-24T12:24:54;12.50;74.10
40932;DHT22;36257;46.052;12.540;2023-01-24T12:27:25;12.50;74.80
40932;DHT22;36257;46.052;12.540;2023-01-24T12:32:48;12.10;75.00
40932;DHT22;36257;46.052;12.540;2023-01-24T12:35:35;12.20;74.70
40932;DHT22;36257;46.052;12.540;2023-01-24T12:40:46;12.30;76.20
40932;DHT22;36257;46.052;12.540;2023-01-24T12:46:06;12.10;76.40
40932;DHT22;36257;46.052;12.540;2023-01-24T12:48:47;11.90;75.30
40932;DHT22;36257;46.052;12.540;2023-01-24T12:51:24;11.80;75.50
40932;DHT22;36257;46.052;12.540;2023-01-24T12:56:30;11.90;75.10
40932;DHT22;36257;46.052;12.540;2023-01-24T12:58:58;11.70;75.00
40932;DHT22;36257;46.052;12.540;2023-01-24T13:04:15;11.90;77.60
40932;DHT22;36257;46.052;12.540;2023-01-24T13:07:32;11.90;75.20
40932;DHT22;36257;46.052;12.540;2023-01-24T13:12:46;11.70;77.60
40932;DHT22;36257;46.052;12.540;2023-01-24T13:15:22;11.70;77.40
40932;DHT22;36257;46.052;12.540;2023-01-24T13:29:34;11.10;78.30
40932;DHT22;36257;46.052;12.540;2023-01-24T13:32:15;11.10;80.00
40932;DHT22;36257;46.052;12.540;2023-01-24T13:34:54;10.90;79.40
40932;DHT22;36257;46.052;12.540;2023-01-24T13:40:24;10.80;81.30
40932;DHT22;36257;46.052;12.540;2023-01-24T13:42:50;10.80;81.30
40932;DHT22;36257;46.052;12.540;2023-01-24T13:48:00;10.80;82.50
40932;DHT22;36257;46.052;12.540;2023-01-24T13:50:28;10.80;81.70
40932;DHT22;36257;46.052;12.540;2023-01-24T13:52:56;10.90;81.60
40932;DHT22;36257;46.052;12.540;2023-01-24T14:00:51;11.00;80.90
40932;DHT22;36257;46.052;12.540;2023-01-24T14:03:24;10.90;81.10
40932;DHT22;36257;46.052;12.540;2023-01-24T14:18:56;10.70;83.90
40932;DHT22;36257;46.052;12.540;2023-01-24T14:24:29;10.60;83.90
40932;DHT22;36257;46.052;12.540;2023-01-24T14:26:58;10.60;84.30
40932;DHT22;36257;46.052;12.540;2023-01-24T14:29:35;10.60;84.10
40932;DHT22;36257;46.052;12.540;2023-01-24T14:32:05;10.70;86.50
40932;DHT22;36257;46.052;12.540;2023-01-24T14:34:40;10.50;87.30
40932;DHT22;36257;46.052;12.540;2023-01-24T14:37:12;10.40;87.60
40932;DHT22;36257;46.052;12.540;2023-01-24T14:39:41;10.10;88.40
40932;DHT22;36257;46.052;12.540;2023-01-24T14:42:12;10.10;89.20
40932;DHT22;36257;46.052;12.540;2023-01-24T14:44:48;10.10;89.20
40932;DHT22;36257;46.052;12.540;2023-01-24T14:47:23;10.10;89.20
40932;DHT22;36257;46.052;12.540;2023-01-24T14:49:54;10.10;89.80
40932;DHT22;36257;46.052;12.540;2023-01-24T14:52:29;10.10;89.80
40932;DHT22;36257;46.052;12.540;2023-01-24T14:54:56;10.10;89.70
40932;DHT22;36257;46.052;12.540;2023-01-24T14:57:26;10.20;89.60
40932;DHT22;36257;46.052;12.540;2023-01-24T15:02:29;10.30;89.30
40932;DHT22;36257;46.052;12.540;2023-01-24T15:04:55;10.20;89.90
40932;DHT22;36257;46.052;12.540;2023-01-24T15:07:21;10.20;89.80
40932;DHT22;36257;46.052;12.540;2023-01-24T15:09:50;10.30;90.50
40932;DHT22;36257;46.052;12.540;2023-01-24T15:12:32;10.30;90.70
40932;DHT22;36257;46.052;12.540;2023-01-24T15:15:00;10.20;90.90
40932;DHT22;36257;46.052;12.540;2023-01-24T15:17:28;10.20;91.20
40932;DHT22;36257;46.052;12.540;2023-01-24T15:20:06;10.30;91.60
40932;DHT22;36257;46.052;12.540;2023-01-24T15:22:36;10.20;91.70
40932;DHT22;36257;46.052;12.540;2023-01-24T15:25:02;10.20;92.30
40932;DHT22;36257;46.052;12.540;2023-01-24T15:30:20;10.10;93.50
40932;DHT22;36257;46.052;12.540;2023-01-24T15:43:41;9.80;96.40
40932;DHT22;36257;46.052;12.540;2023-01-24T15:46:20;9.80;96.70
40932;DHT22;36257;46.052;12.540;2023-01-24T15:49:26;9.70;97.90
40932;DHT22;36257;46.052;12.540;2023-01-24T15:54:34;9.60;98.70
40932;DHT22;36257;46.052;12.540;2023-01-24T15:57:05;9.60;99.10
40932;DHT22;36257;46.052;12.540;2023-01-24T15:59:32;9.40;99.90
40932;DHT22;36257;46.052;12.540;2023-01-24T16:01:59;9.20;99.90
40932;DHT22;36257;46.052;12.540;2023-01-24T16:04:25;9.20;99.90
40932;DHT22;36257;46.052;12.540;2023-01-24T16:06:51;9.10;99.90
40932;DHT22;36257;46.052;12.540;2023-01-24T16:09:17;9.10;99.90
40932;DHT22;36257;46.052;12.540;2023-01-24T16:11:45;9.10;99.90
40932;DHT22;36257;46.052;12.540;2023-01-24T16:14:15;9.00;99.90
40932;DHT22;36257;46.052;12.540;2023-01-24T16:16:42;9.10;99.90
40932;DHT22;36257;46.052;12.540;2023-01-24T16:19:21;9.10;99.90
40932;DHT22;36257;46.052;12.540;2023-01-24T16:21:49;9.20;99.90
40932;DHT22;36257;46.052;12.540;2023-01-24T16:24:15;9.10;99.90
40932;DHT22;36257;46.052;12.540;2023-01-24T16:26:45;9.10;99.90
40932;DHT22;36257;46.052;12.540;2023-01-24T16:29:23;8.90;99.90
40932;DHT22;36257;46.052;12.540;2023-01-24T16:31:49;8.90;99.90
40932;DHT22;36257;46.052;12.540;2023-01-24T16:34:15;8.90;99.90
40932;DHT22;36257;46.052;12.540;2023-01-24T16:36:41;8.80;99.90
40932;DHT22;36257;46.052;12.540;2023-01-24T16:39:09;8.80;99.90
40932;DHT22;36257;46.052;12.540;2023-01-24T16:41:34;8.90;99.90
40932;DHT22;36257;46.052;12.540;2023-01-24T16:44:00;9.00;99.90
40932;DHT22;36257;46.052;12.540;2023-01-24T16:46:26;9.00;99.90
40932;DHT22;36257;46.052;12.540;2023-01-24T16:48:51;8.90;99.90
40932;DHT22;36257;46.052;12.540;2023-01-24T16:51:18;8.90;99.90
40932;DHT22;36257;46.052;12.540;2023-01-24T16:53:44;8.90;99.90
40932;DHT22;36257;46.052;12.540;2023-01-24T16:56:10;8.90;99.90
40932;DHT22;36257;46.052;12.540;2023-01-24T16:58:36;8.80;99.90
40932;DHT22;36257;46.052;12.540;2023-01-24T17:01:08;8.70;99.90
40932;DHT22;36257;46.052;12.540;2023-01-24T17:03:35;8.50;99.90
40932;DHT22;36257;46.052;12.540;2023-01-24T17:06:08;8.50;99.90
40932;DHT22;36257;46.052;12.540;2023-01-24T17:08:34;8.40;99.90
40932;DHT22;36257;46.052;12.540;2023-01-24T17:11:08;8.20;99.90
40932;DHT22;36257;46.052;12.540;2023-01-24T17:13:35;8.20;99.90
40932;DHT22;36257;46.052;12.540;2023-01-24T17:16:05;8.20;99.90
40932;DHT22;36257;46.052;12.540;2023-01-24T17:18:33;8.20;99.90
40932;DHT22;36257;46.052;12.540;2023-01-24T17:21:07;8.20;99.90
40932;DHT22;36257;46.052;12.540;2023-01-24T17:23:34;8.20;99.90
40932;DHT22;36257;46.052;12.540;2023-01-24T17:26:04;8.30;99.90
40932;DHT22;36257;46.052;12.540;2023-01-24T17:28:30;8.30;99.90
40932;DHT22;36257;46.052;12.540;2023-01-24T17:30:56;8.40;99.90
40932;DHT22;36257;46.052;12.540;2023-01-24T17:33:22;8.50;99.90
40932;DHT22;36257;46.052;12.540;2023-01-24T17:35:48;8.50;99.90
40932;DHT22;36257;46.052;12.540;2023-01-24T17:38:13;8.40;99.90
40932;DHT22;36257;46.052;12.540;2023-01-24T17:40:40;8.40;99.90
40932;DHT22;36257;46.052;12.540;2023-01-24T17:43:06;8.40;99.90
40932;DHT22;36257;46.052;12.540;2023-01-24T17:45:31;8.40;99.90
40932;DHT22;36257;46.052;12.540;2023-01-24T17:47:57;8.30;99.90
40932;DHT22;36257;46.052;12.540;2023-01-24T17:50:23;8.30;99.90
40932;DHT22;36257;46.052;12.540;2023-01-24T17:52:49;8.30;99.90
40932;DHT22;36257;46.052;12.540;2023-01-24T17:55:14;8.30;99.90
40932;DHT22;36257;46.052;12.540;2023-01-24T17:57:42;8.30;99.90
40932;DHT22;36257;46.052;12.540;2023-01-24T18:00:09;8.30;99.90
40932;DHT22;36257;46.052;12.540;2023-01-24T18:02:35;8.20;99.90
40932;DHT22;36257;46.052;12.540;2023-01-24T18:05:00;8.20;99.90
40932;DHT22;36257;46.052;12.540;2023-01-24T18:07:26;8.20;99.90
40932;DHT22;36257;46.052;12.540;2023-01-24T18:09:52;8.10;99.90
40932;DHT22;36257;46.052;12.540;2023-01-24T18:12:17;8.10;99.90